sensor_id;sensor_type;location;lat;lon;timestamp;pressure;altitude;pressure_sealevel;temperature;humidity
77159;BME280;66129;45.890;13.714;2022-12-18T00:01:33;102182.44;;;4.93;53.82
77159;BME280;66129;45.890;13.714;2022-12-18T00:04:01;102187.25;;;4.88;54.22
77159;BME280;66129;45.890;13.714;2022-12-18T00:06:28;102197.59;;;4.91;54.51
77159;BME280;66129;45.890;13.714;2022-12-18T00:08:56;102204.91;;;4.87;54.82
77159;BME280;66129;45.890;13.714;2022-12-18T00:11:24;102213.41;;;4.87;54.82
77159;BME280;66129;45.890;13.714;2022-12-18T00:13:50;102203.16;;;4.86;54.63
77159;BME280;66129;45.890;13.714;2022-12-18T00:16:20;102205.09;;;4.77;54.95
77159;BME280;66129;45.890;13.714;2022-12-18T00:18:47;102210.19;;;4.77;55.65
77159;BME280;66129;45.890;13.714;2022-12-18T00:21:14;102205.09;;;4.77;55.05
77159;BME280;66129;45.890;13.714;2022-12-18T00:23:42;102200.00;;;4.64;55.02
77159;BME280;66129;45.890;13.714;2022-12-18T00:26:11;102217.41;;;4.71;55.71
77159;BME280;66129;45.890;13.714;2022-12-18T00:28:37;102210.00;;;4.74;55.57
77159;BME280;66129;45.890;13.714;2022-12-18T00:31:08;102203.53;;;4.66;55.72
77159;BME280;66129;45.890;13.714;2022-12-18T00:33:34;102226.00;;;4.73;55.96
77159;BME280;66129;45.890;13.714;2022-12-18T00:36:27;102189.72;;;4.49;55.79
77159;BME280;66129;45.890;13.714;2022-12-18T00:38:51;102240.06;;;4.68;56.03
77159;BME280;66129;45.890;13.714;2022-12-18T00:41:18;102228.72;;;4.63;55.81
77159;BME280;66129;45.890;13.714;2022-12-18T00:44:04;102236.75;;;4.69;56.30
77159;BME280;66129;45.890;13.714;2022-12-18T00:46:31;102196.16;;;4.44;56.63
77159;BME280;66129;45.890;13.714;2022-12-18T00:48:56;102221.25;;;4.53;57.03
77159;BME280;66129;45.890;13.714;2022-12-18T00:51:22;102209.63;;;4.43;57.26
77159;BME280;66129;45.890;13.714;2022-12-18T00:53:48;102176.59;;;4.31;56.96
77159;BME280;66129;45.890;13.714;2022-12-18T00:56:13;102204.94;;;4.49;57.27
77159;BME280;66129;45.890;13.714;2022-12-18T00:58:38;102229.06;;;4.56;57.81
77159;BME280;66129;45.890;13.714;2022-12-18T01:01:05;102185.06;;;4.31;57.90
77159;BME280;66129;45.890;13.714;2022-12-18T01:03:30;102213.72;;;4.41;57.84
77159;BME280;66129;45.890;13.714;2022-12-18T01:05:56;102203.34;;;4.38;58.34
77159;BME280;66129;45.890;13.714;2022-12-18T01:08:21;102200.16;;;4.41;58.31
77159;BME280;66129;45.890;13.714;2022-12-18T01:10:46;102187.41;;;4.28;58.06
77159;BME280;66129;45.890;13.714;2022-12-18T01:13:12;102157.31;;;4.08;57.96
77159;BME280;66129;45.890;13.714;2022-12-18T01:15:37;102193.94;;;4.25;58.24
77159;BME280;66129;45.890;13.714;2022-12-18T01:18:03;102230.25;;;4.48;58.69
77159;BME280;66129;45.890;13.714;2022-12-18T01:20:28;102218.38;;;4.35;58.51
77159;BME280;66129;45.890;13.714;2022-12-18T01:22:54;102232.78;;;4.48;58.49
77159;BME280;66129;45.890;13.714;2022-12-18T01:25:19;102220.75;;;4.45;58.45
77159;BME280;66129;45.890;13.714;2022-12-18T01:27:44;102216.38;;;4.43;58.48
77159;BME280;66129;45.890;13.714;2022-12-18T01:30:10;102193.88;;;4.36;58.51
77159;BME280;66129;45.890;13.714;2022-12-18T01:32:36;102156.59;;;4.11;58.19
77159;BME280;66129;45.890;13.714;2022-12-18T01:35:02;102201.13;;;4.43;58.32
77159;BME280;66129;45.890;13.714;2022-12-18T01:37:27;102136.09;;;3.95;58.24
77159;BME280;66129;45.890;13.714;2022-12-18T01:39:53;102171.47;;;4.18;58.48
77159;BME280;66129;45.890;13.714;2022-12-18T01:42:20;102216.94;;;4.39;58.47
77159;BME280;66129;45.890;13.714;2022-12-18T01:50:43;102219.63;;;4.29;58.80
77159;BME280;66129;45.890;13.714;2022-12-18T01:53:15;102245.06;;;4.42;58.49
77159;BME280;66129;45.890;13.714;2022-12-18T01:55:53;102221.88;;;4.25;58.65
77159;BME280;66129;45.890;13.714;2022-12-18T01:58:27;102264.69;;;4.44;58.35
77159;BME280;66129;45.890;13.714;2022-12-18T02:00:55;102239.84;;;4.28;58.84
77159;BME280;66129;45.890;13.714;2022-12-18T02:03:21;102254.38;;;4.30;58.92
77159;BME280;66129;45.890;13.714;2022-12-18T02:06:01;102265.38;;;4.42;58.05
77159;BME280;66129;45.890;13.714;2022-12-18T02:11:18;102290.84;;;4.43;57.78
77159;BME280;66129;45.890;13.714;2022-12-18T02:16:51;102308.09;;;4.36;58.35
77159;BME280;66129;45.890;13.714;2022-12-18T02:20:28;102299.28;;;4.31;58.36
77159;BME280;66129;45.890;13.714;2022-12-18T02:25:28;102309.91;;;4.26;58.18
77159;BME280;66129;45.890;13.714;2022-12-18T02:28:04;102313.53;;;4.29;57.73
77159;BME280;66129;45.890;13.714;2022-12-18T02:30:33;102312.66;;;4.29;57.91
77159;BME280;66129;45.890;13.714;2022-12-18T02:33:01;102302.63;;;4.19;57.17
77159;BME280;66129;45.890;13.714;2022-12-18T02:35:30;102283.59;;;4.12;57.23
77159;BME280;66129;45.890;13.714;2022-12-18T02:37:56;102324.66;;;4.31;56.55
77159;BME280;66129;45.890;13.714;2022-12-18T02:40:24;102320.47;;;4.32;56.66
77159;BME280;66129;45.890;13.714;2022-12-18T02:42:51;102305.19;;;4.19;56.32
77159;BME280;66129;45.890;13.714;2022-12-18T02:45:17;102305.09;;;4.17;57.28
77159;BME280;66129;45.890;13.714;2022-12-18T02:47:46;102335.94;;;4.23;57.43
77159;BME280;66129;45.890;13.714;2022-12-18T02:50:34;102299.59;;;4.11;57.46
77159;BME280;66129;45.890;13.714;2022-12-18T02:53:12;102319.94;;;4.24;57.39
77159;BME280;66129;45.890;13.714;2022-12-18T02:55:44;102330.84;;;4.23;57.58
77159;BME280;66129;45.890;13.714;2022-12-18T02:58:46;102329.22;;;4.24;57.04
77159;BME280;66129;45.890;13.714;2022-12-18T03:04:26;102311.28;;;4.09;57.69
77159;BME280;66129;45.890;13.714;2022-12-18T03:07:02;102328.91;;;4.19;57.38
77159;BME280;66129;45.890;13.714;2022-12-18T03:09:39;102335.84;;;4.22;58.02
77159;BME280;66129;45.890;13.714;2022-12-18T03:12:14;102281.31;;;3.92;57.76
77159;BME280;66129;45.890;13.714;2022-12-18T03:14:56;102310.28;;;4.07;57.41
77159;BME280;66129;45.890;13.714;2022-12-18T03:17:27;102308.22;;;4.02;57.91
77159;BME280;66129;45.890;13.714;2022-12-18T03:19:56;102300.25;;;3.97;58.28
77159;BME280;66129;45.890;13.714;2022-12-18T03:22:24;102339.19;;;4.09;58.35
77159;BME280;66129;45.890;13.714;2022-12-18T03:24:53;102348.56;;;4.10;58.27
77159;BME280;66129;45.890;13.714;2022-12-18T03:27:22;102320.47;;;3.96;58.02
77159;BME280;66129;45.890;13.714;2022-12-18T03:29:56;102290.84;;;3.83;57.57
77159;BME280;66129;45.890;13.714;2022-12-18T03:32:38;102319.91;;;4.00;57.34
77159;BME280;66129;45.890;13.714;2022-12-18T03:35:05;102345.47;;;4.14;57.53
77159;BME280;66129;45.890;13.714;2022-12-18T03:37:33;102351.75;;;4.19;57.26
77159;BME280;66129;45.890;13.714;2022-12-18T03:39:59;102349.34;;;4.09;56.96
77159;BME280;66129;45.890;13.714;2022-12-18T03:42:48;102362.97;;;4.23;56.31
77159;BME280;66129;45.890;13.714;2022-12-18T03:45:51;102352.72;;;4.21;55.53
77159;BME280;66129;45.890;13.714;2022-12-18T03:49:01;102385.56;;;4.31;55.73
77159;BME280;66129;45.890;13.714;2022-12-18T03:54:04;102369.13;;;4.26;55.65
77159;BME280;66129;45.890;13.714;2022-12-18T03:56:42;102381.31;;;4.19;56.33
77159;BME280;66129;45.890;13.714;2022-12-18T03:59:11;102393.13;;;4.18;56.71
77159;BME280;66129;45.890;13.714;2022-12-18T04:01:41;102388.81;;;4.17;56.34
77159;BME280;66129;45.890;13.714;2022-12-18T04:04:09;102406.22;;;4.13;57.24
77159;BME280;66129;45.890;13.714;2022-12-18T04:06:36;102402.72;;;4.11;56.86
77159;BME280;66129;45.890;13.714;2022-12-18T04:09:03;102401.63;;;4.07;57.10
77159;BME280;66129;45.890;13.714;2022-12-18T04:11:30;102382.66;;;3.91;57.28
77159;BME280;66129;45.890;13.714;2022-12-18T04:13:57;102397.31;;;4.06;56.67
77159;BME280;66129;45.890;13.714;2022-12-18T04:16:24;102381.78;;;4.02;56.89
77159;BME280;66129;45.890;13.714;2022-12-18T04:18:49;102399.84;;;4.18;56.55
77159;BME280;66129;45.890;13.714;2022-12-18T04:21:15;102386.84;;;4.02;57.18
77159;BME280;66129;45.890;13.714;2022-12-18T04:23:40;102408.69;;;4.11;57.17
77159;BME280;66129;45.890;13.714;2022-12-18T04:26:06;102422.34;;;4.13;57.21
77159;BME280;66129;45.890;13.714;2022-12-18T04:28:31;102392.81;;;3.91;57.48
77159;BME280;66129;45.890;13.714;2022-12-18T04:30:57;102415.94;;;3.95;58.22
77159;BME280;66129;45.890;13.714;2022-12-18T04:33:22;102331.84;;;3.43;58.46
77159;BME280;66129;45.890;13.714;2022-12-18T04:35:47;102426.88;;;3.94;59.25
77159;BME280;66129;45.890;13.714;2022-12-18T04:38:13;102389.06;;;3.74;58.87
77159;BME280;66129;45.890;13.714;2022-12-18T04:40:39;102420.94;;;3.94;58.25
77159;BME280;66129;45.890;13.714;2022-12-18T04:43:04;102426.22;;;3.97;58.46
77159;BME280;66129;45.890;13.714;2022-12-18T04:45:31;102430.19;;;3.93;58.29
77159;BME280;66129;45.890;13.714;2022-12-18T04:48:01;102447.28;;;3.96;58.77
77159;BME280;66129;45.890;13.714;2022-12-18T04:50:27;102446.16;;;3.92;58.45
77159;BME280;66129;45.890;13.714;2022-12-18T04:52:53;102366.34;;;3.41;57.89
77159;BME280;66129;45.890;13.714;2022-12-18T04:55:19;102433.25;;;3.78;58.40
77159;BME280;66129;45.890;13.714;2022-12-18T04:57:44;102429.94;;;3.67;58.74
77159;BME280;66129;45.890;13.714;2022-12-18T05:00:10;102411.41;;;3.45;59.03
77159;BME280;66129;45.890;13.714;2022-12-18T05:02:35;102449.47;;;3.80;59.26
77159;BME280;66129;45.890;13.714;2022-12-18T05:05:01;102451.78;;;3.65;59.72
77159;BME280;66129;45.890;13.714;2022-12-18T05:07:26;102441.75;;;3.55;58.92
77159;BME280;66129;45.890;13.714;2022-12-18T05:09:52;102455.53;;;3.70;58.95
77159;BME280;66129;45.890;13.714;2022-12-18T05:12:17;102471.44;;;3.79;59.51
77159;BME280;66129;45.890;13.714;2022-12-18T05:14:43;102451.00;;;3.55;59.64
77159;BME280;66129;45.890;13.714;2022-12-18T05:17:08;102456.63;;;3.62;59.45
77159;BME280;66129;45.890;13.714;2022-12-18T05:19:33;102474.41;;;3.74;59.83
77159;BME280;66129;45.890;13.714;2022-12-18T05:21:59;102482.19;;;3.65;60.29
77159;BME280;66129;45.890;13.714;2022-12-18T05:24:24;102490.16;;;3.70;59.84
77159;BME280;66129;45.890;13.714;2022-12-18T05:26:50;102484.31;;;3.59;60.02
77159;BME280;66129;45.890;13.714;2022-12-18T05:29:15;102475.88;;;3.49;61.12
77159;BME280;66129;45.890;13.714;2022-12-18T05:31:41;102497.63;;;3.57;60.63
77159;BME280;66129;45.890;13.714;2022-12-18T05:34:06;102497.78;;;3.70;61.09
77159;BME280;66129;45.890;13.714;2022-12-18T05:36:32;102488.47;;;3.59;61.03
77159;BME280;66129;45.890;13.714;2022-12-18T05:38:58;102482.94;;;3.53;61.23
77159;BME280;66129;45.890;13.714;2022-12-18T05:41:23;102490.91;;;3.57;61.63
77159;BME280;66129;45.890;13.714;2022-12-18T05:43:48;102504.59;;;3.59;61.89
77159;BME280;66129;45.890;13.714;2022-12-18T05:46:16;102526.06;;;3.64;61.85
77159;BME280;66129;45.890;13.714;2022-12-18T05:48:43;102501.00;;;3.46;62.21
77159;BME280;66129;45.890;13.714;2022-12-18T05:51:11;102533.56;;;3.63;62.54
77159;BME280;66129;45.890;13.714;2022-12-18T05:53:37;102516.25;;;3.57;64.98
77159;BME280;66129;45.890;13.714;2022-12-18T05:56:06;102525.72;;;3.60;62.32
77159;BME280;66129;45.890;13.714;2022-12-18T05:58:32;102508.94;;;3.39;62.21
77159;BME280;66129;45.890;13.714;2022-12-18T06:01:15;102514.78;;;3.49;62.09
77159;BME280;66129;45.890;13.714;2022-12-18T06:03:41;102472.00;;;3.42;62.84
77159;BME280;66129;45.890;13.714;2022-12-18T06:06:21;102490.81;;;3.34;62.77
77159;BME280;66129;45.890;13.714;2022-12-18T06:08:48;102519.19;;;3.52;63.15
77159;BME280;66129;45.890;13.714;2022-12-18T06:11:17;102503.16;;;3.30;63.07
77159;BME280;66129;45.890;13.714;2022-12-18T06:13:42;102493.69;;;3.28;62.76
77159;BME280;66129;45.890;13.714;2022-12-18T06:16:08;102520.72;;;3.50;62.29
77159;BME280;66129;45.890;13.714;2022-12-18T06:18:33;102530.34;;;3.54;61.96
77159;BME280;66129;45.890;13.714;2022-12-18T06:20:59;102518.56;;;3.54;62.23
77159;BME280;66129;45.890;13.714;2022-12-18T06:23:25;102509.41;;;3.56;60.74
77159;BME280;66129;45.890;13.714;2022-12-18T06:25:51;102524.50;;;3.55;61.20
77159;BME280;66129;45.890;13.714;2022-12-18T06:28:16;102506.38;;;3.39;60.62
77159;BME280;66129;45.890;13.714;2022-12-18T06:30:46;102530.34;;;3.54;60.43
77159;BME280;66129;45.890;13.714;2022-12-18T06:33:13;102532.00;;;3.53;60.22
77159;BME280;66129;45.890;13.714;2022-12-18T06:35:38;102527.53;;;3.39;60.27
77159;BME280;66129;45.890;13.714;2022-12-18T06:38:04;102528.34;;;3.50;60.48
77159;BME280;66129;45.890;13.714;2022-12-18T06:40:29;102516.63;;;3.40;60.55
77159;BME280;66129;45.890;13.714;2022-12-18T06:42:55;102544.75;;;3.43;60.54
77159;BME280;66129;45.890;13.714;2022-12-18T06:45:20;102542.38;;;3.56;60.42
77159;BME280;66129;45.890;13.714;2022-12-18T06:47:46;102542.31;;;3.45;60.66
77159;BME280;66129;45.890;13.714;2022-12-18T06:50:12;102540.69;;;3.45;60.97
77159;BME280;66129;45.890;13.714;2022-12-18T06:52:38;102557.41;;;3.43;61.11
77159;BME280;66129;45.890;13.714;2022-12-18T06:55:06;102548.44;;;3.58;60.95
77159;BME280;66129;45.890;13.714;2022-12-18T06:57:34;102474.63;;;3.32;60.25
77159;BME280;66129;45.890;13.714;2022-12-18T07:00:00;102562.94;;;3.71;60.37
77159;BME280;66129;45.890;13.714;2022-12-18T07:02:25;102532.25;;;3.56;60.30
77159;BME280;66129;45.890;13.714;2022-12-18T07:04:51;102577.31;;;3.60;60.39
77159;BME280;66129;45.890;13.714;2022-12-18T07:07:16;102524.97;;;3.28;60.50
77159;BME280;66129;45.890;13.714;2022-12-18T07:09:42;102516.31;;;3.15;60.38
77159;BME280;66129;45.890;13.714;2022-12-18T07:12:07;102582.81;;;3.55;61.25
77159;BME280;66129;45.890;13.714;2022-12-18T07:14:33;102516.34;;;3.26;60.72
77159;BME280;66129;45.890;13.714;2022-12-18T07:16:59;102565.50;;;3.49;60.97
77159;BME280;66129;45.890;13.714;2022-12-18T07:19:28;102583.59;;;3.65;61.37
77159;BME280;66129;45.890;13.714;2022-12-18T07:21:54;102584.56;;;3.56;61.26
77159;BME280;66129;45.890;13.714;2022-12-18T07:24:19;102593.75;;;3.65;61.46
77159;BME280;66129;45.890;13.714;2022-12-18T07:26:46;102593.38;;;3.49;61.72
77159;BME280;66129;45.890;13.714;2022-12-18T07:29:11;102596.28;;;3.65;61.51
77159;BME280;66129;45.890;13.714;2022-12-18T07:31:37;102592.97;;;3.66;61.94
77159;BME280;66129;45.890;13.714;2022-12-18T07:34:03;102597.31;;;3.79;61.15
77159;BME280;66129;45.890;13.714;2022-12-18T07:36:28;102613.38;;;3.89;61.09
77159;BME280;66129;45.890;13.714;2022-12-18T07:38:53;102607.84;;;3.83;61.44
77159;BME280;66129;45.890;13.714;2022-12-18T07:41:19;102625.06;;;3.87;62.18
77159;BME280;66129;45.890;13.714;2022-12-18T07:43:46;102606.53;;;3.88;62.40
77159;BME280;66129;45.890;13.714;2022-12-18T07:46:12;102610.50;;;3.96;62.21
77159;BME280;66129;45.890;13.714;2022-12-18T07:48:41;102607.78;;;4.05;61.90
77159;BME280;66129;45.890;13.714;2022-12-18T07:51:07;102629.66;;;4.26;61.83
77159;BME280;66129;45.890;13.714;2022-12-18T07:53:34;102630.22;;;4.33;61.79
77159;BME280;66129;45.890;13.714;2022-12-18T07:56:02;102631.31;;;4.36;61.67
77159;BME280;66129;45.890;13.714;2022-12-18T07:58:29;102624.69;;;4.38;61.78
77159;BME280;66129;45.890;13.714;2022-12-18T08:01:11;102620.31;;;4.36;61.89
77159;BME280;66129;45.890;13.714;2022-12-18T08:03:38;102633.91;;;4.48;60.95
77159;BME280;66129;45.890;13.714;2022-12-18T08:06:05;102647.03;;;4.54;61.50
77159;BME280;66129;45.890;13.714;2022-12-18T08:08:33;102606.28;;;4.41;60.73
77159;BME280;66129;45.890;13.714;2022-12-18T08:10:59;102644.16;;;4.61;60.81
77159;BME280;66129;45.890;13.714;2022-12-18T08:13:25;102639.97;;;4.61;60.47
77159;BME280;66129;45.890;13.714;2022-12-18T08:16:05;102616.56;;;4.54;59.99
77159;BME280;66129;45.890;13.714;2022-12-18T08:18:33;102605.75;;;4.45;60.06
77159;BME280;66129;45.890;13.714;2022-12-18T08:21:07;102544.16;;;4.13;59.87
77159;BME280;66129;45.890;13.714;2022-12-18T08:23:33;102608.72;;;4.51;59.43
77159;BME280;66129;45.890;13.714;2022-12-18T08:25:58;102587.22;;;4.46;59.20
77159;BME280;66129;45.890;13.714;2022-12-18T08:28:23;102566.63;;;4.89;58.17
77159;BME280;66129;45.890;13.714;2022-12-18T08:30:51;102563.94;;;5.59;55.72
77159;BME280;66129;45.890;13.714;2022-12-18T08:33:17;102611.78;;;6.51;53.23
77159;BME280;66129;45.890;13.714;2022-12-18T08:35:45;102601.50;;;6.88;52.37
77159;BME280;66129;45.890;13.714;2022-12-18T08:38:11;102616.34;;;7.21;51.07
77159;BME280;66129;45.890;13.714;2022-12-18T08:40:36;102667.66;;;7.66;51.16
77159;BME280;66129;45.890;13.714;2022-12-18T08:43:02;102665.72;;;7.89;50.19
77159;BME280;66129;45.890;13.714;2022-12-18T08:46:00;102666.97;;;7.95;49.38
77159;BME280;66129;45.890;13.714;2022-12-18T08:48:25;102638.63;;;8.05;48.92
77159;BME280;66129;45.890;13.714;2022-12-18T08:50:57;102674.84;;;8.13;48.05
77159;BME280;66129;45.890;13.714;2022-12-18T08:53:23;102679.91;;;8.40;48.06
77159;BME280;66129;45.890;13.714;2022-12-18T08:55:49;102681.06;;;8.45;47.11
77159;BME280;66129;45.890;13.714;2022-12-18T08:58:14;102668.03;;;8.41;47.39
77159;BME280;66129;45.890;13.714;2022-12-18T09:00:40;102691.66;;;8.51;46.12
77159;BME280;66129;45.890;13.714;2022-12-18T09:03:19;102666.88;;;8.50;46.15
77159;BME280;66129;45.890;13.714;2022-12-18T09:05:48;102683.00;;;8.78;46.21
77159;BME280;66129;45.890;13.714;2022-12-18T09:08:14;102698.94;;;9.03;45.58
77159;BME280;66129;45.890;13.714;2022-12-18T09:10:48;102680.06;;;9.01;45.19
77159;BME280;66129;45.890;13.714;2022-12-18T09:13:15;102705.59;;;9.30;44.71
77159;BME280;66129;45.890;13.714;2022-12-18T09:15:42;102684.31;;;9.00;44.60
77159;BME280;66129;45.890;13.714;2022-12-18T09:18:09;102704.56;;;9.12;44.41
77159;BME280;66129;45.890;13.714;2022-12-18T09:20:36;102693.66;;;9.14;44.12
77159;BME280;66129;45.890;13.714;2022-12-18T09:23:02;102678.69;;;8.77;44.90
77159;BME280;66129;45.890;13.714;2022-12-18T09:25:29;102702.78;;;8.81;44.60
77159;BME280;66129;45.890;13.714;2022-12-18T09:28:00;102692.06;;;9.02;43.37
77159;BME280;66129;45.890;13.714;2022-12-18T09:30:27;102709.09;;;9.01;43.86
77159;BME280;66129;45.890;13.714;2022-12-18T09:32:52;102710.84;;;9.02;43.72
77159;BME280;66129;45.890;13.714;2022-12-18T09:35:18;102717.63;;;9.02;43.85
77159;BME280;66129;45.890;13.714;2022-12-18T09:37:43;102730.88;;;9.09;43.66
77159;BME280;66129;45.890;13.714;2022-12-18T09:40:20;102733.44;;;8.95;43.40
77159;BME280;66129;45.890;13.714;2022-12-18T09:42:54;102702.28;;;9.02;43.94
77159;BME280;66129;45.890;13.714;2022-12-18T09:45:22;102695.75;;;9.07;43.09
77159;BME280;66129;45.890;13.714;2022-12-18T09:47:48;102747.97;;;9.25;43.87
77159;BME280;66129;45.890;13.714;2022-12-18T09:52:45;102731.53;;;9.36;43.36
77159;BME280;66129;45.890;13.714;2022-12-18T09:55:25;102731.78;;;9.40;42.67
77159;BME280;66129;45.890;13.714;2022-12-18T09:58:07;102723.75;;;9.65;42.56
77159;BME280;66129;45.890;13.714;2022-12-18T10:00:37;102714.53;;;9.22;43.13
77159;BME280;66129;45.890;13.714;2022-12-18T10:03:10;102723.81;;;9.50;43.27
77159;BME280;66129;45.890;13.714;2022-12-18T10:08:24;102713.38;;;9.78;42.73
77159;BME280;66129;45.890;13.714;2022-12-18T10:10:53;102722.34;;;10.00;41.76
77159;BME280;66129;45.890;13.714;2022-12-18T10:13:48;102711.72;;;9.94;42.04
77159;BME280;66129;45.890;13.714;2022-12-18T10:19:13;102726.50;;;10.63;40.44
77159;BME280;66129;45.890;13.714;2022-12-18T10:24:59;102725.22;;;10.55;40.00
77159;BME280;66129;45.890;13.714;2022-12-18T10:27:27;102731.75;;;10.49;39.56
77159;BME280;66129;45.890;13.714;2022-12-18T10:29:54;102737.09;;;10.53;39.97
77159;BME280;66129;45.890;13.714;2022-12-18T10:32:28;102725.50;;;10.44;39.58
77159;BME280;66129;45.890;13.714;2022-12-18T10:34:57;102728.66;;;10.72;40.07
77159;BME280;66129;45.890;13.714;2022-12-18T10:37:25;102707.44;;;10.58;39.71
77159;BME280;66129;45.890;13.714;2022-12-18T10:40:12;102720.41;;;10.77;39.69
77159;BME280;66129;45.890;13.714;2022-12-18T10:42:39;102712.13;;;11.00;38.54
77159;BME280;66129;45.890;13.714;2022-12-18T10:45:15;102692.25;;;10.79;38.47
77159;BME280;66129;45.890;13.714;2022-12-18T10:47:46;102710.13;;;11.12;39.30
77159;BME280;66129;45.890;13.714;2022-12-18T10:52:54;102709.13;;;11.26;38.74
77159;BME280;66129;45.890;13.714;2022-12-18T10:55:20;102703.84;;;11.23;38.81
77159;BME280;66129;45.890;13.714;2022-12-18T10:57:45;102675.97;;;10.96;39.10
77159;BME280;66129;45.890;13.714;2022-12-18T11:00:26;102674.97;;;11.09;39.17
77159;BME280;66129;45.890;13.714;2022-12-18T11:02:53;102688.22;;;11.36;38.71
77159;BME280;66129;45.890;13.714;2022-12-18T11:05:34;102696.28;;;11.43;38.51
77159;BME280;66129;45.890;13.714;2022-12-18T11:08:02;102692.31;;;11.32;38.32
77159;BME280;66129;45.890;13.714;2022-12-18T11:10:33;102691.31;;;10.94;39.33
77159;BME280;66129;45.890;13.714;2022-12-18T11:13:17;102684.06;;;10.52;38.91
77159;BME280;66129;45.890;13.714;2022-12-18T11:15:44;102671.97;;;10.50;39.91
77159;BME280;66129;45.890;13.714;2022-12-18T11:18:31;102686.97;;;10.76;39.96
77159;BME280;66129;45.890;13.714;2022-12-18T11:21:09;102670.56;;;10.90;39.69
77159;BME280;66129;45.890;13.714;2022-12-18T11:23:35;102683.88;;;10.65;39.78
77159;BME280;66129;45.890;13.714;2022-12-18T11:26:03;102690.59;;;10.63;40.10
77159;BME280;66129;45.890;13.714;2022-12-18T11:28:52;102695.56;;;10.60;39.67
77159;BME280;66129;45.890;13.714;2022-12-18T11:31:19;102681.94;;;10.61;39.37
77159;BME280;66129;45.890;13.714;2022-12-18T11:34:27;102688.75;;;10.43;40.01
77159;BME280;66129;45.890;13.714;2022-12-18T11:36:56;102686.53;;;10.17;40.65
77159;BME280;66129;45.890;13.714;2022-12-18T11:39:30;102689.31;;;10.06;40.44
77159;BME280;66129;45.890;13.714;2022-12-18T11:50:41;102671.63;;;9.48;41.38
77159;BME280;66129;45.890;13.714;2022-12-18T11:53:02;102699.38;;;9.41;41.30
77159;BME280;66129;45.890;13.714;2022-12-18T12:01:34;102679.69;;;9.24;41.51
77159;BME280;66129;45.890;13.714;2022-12-18T12:07:16;102694.00;;;8.91;42.83
77159;BME280;66129;45.890;13.714;2022-12-18T12:12:33;102696.56;;;8.34;43.72
77159;BME280;66129;45.890;13.714;2022-12-18T12:17:56;102684.06;;;8.24;44.77
77159;BME280;66129;45.890;13.714;2022-12-18T12:23:01;102689.06;;;8.22;44.47
77159;BME280;66129;45.890;13.714;2022-12-18T12:25:34;102688.09;;;7.93;44.61
77159;BME280;66129;45.890;13.714;2022-12-18T12:33:54;102687.06;;;7.23;47.21
77159;BME280;66129;45.890;13.714;2022-12-18T12:38:56;102674.75;;;6.40;48.68
77159;BME280;66129;45.890;13.714;2022-12-18T12:41:27;102680.84;;;6.18;50.04
77159;BME280;66129;45.890;13.714;2022-12-18T12:44:27;102686.63;;;5.91;50.38
77159;BME280;66129;45.890;13.714;2022-12-18T12:47:07;102683.88;;;5.76;50.51
77159;BME280;66129;45.890;13.714;2022-12-18T12:49:35;102693.66;;;5.82;51.18
77159;BME280;66129;45.890;13.714;2022-12-18T12:52:08;102692.75;;;5.70;51.50
77159;BME280;66129;45.890;13.714;2022-12-18T12:54:37;102700.97;;;5.66;51.80
77159;BME280;66129;45.890;13.714;2022-12-18T12:57:16;102690.59;;;5.51;51.39
77159;BME280;66129;45.890;13.714;2022-12-18T12:59:47;102716.34;;;5.56;52.74
77159;BME280;66129;45.890;13.714;2022-12-18T13:07:39;102714.28;;;5.39;53.41
77159;BME280;66129;45.890;13.714;2022-12-18T13:12:54;102722.34;;;5.45;53.43
77159;BME280;66129;45.890;13.714;2022-12-18T13:18:13;102704.00;;;5.26;54.05
77159;BME280;66129;45.890;13.714;2022-12-18T13:20:49;102714.63;;;5.32;53.61
77159;BME280;66129;45.890;13.714;2022-12-18T13:31:00;102707.56;;;5.87;52.66
77159;BME280;66129;45.890;13.714;2022-12-18T13:36:09;102738.53;;;6.17;52.14
77159;BME280;66129;45.890;13.714;2022-12-18T13:38:38;102700.78;;;5.99;51.89
77159;BME280;66129;45.890;13.714;2022-12-18T13:41:22;102731.94;;;6.32;51.01
77159;BME280;66129;45.890;13.714;2022-12-18T13:49:20;102737.22;;;6.59;50.71
77159;BME280;66129;45.890;13.714;2022-12-18T13:51:48;102730.34;;;6.58;50.93
77159;BME280;66129;45.890;13.714;2022-12-18T13:54:42;102730.97;;;6.67;50.92
77159;BME280;66129;45.890;13.714;2022-12-18T13:57:43;102730.00;;;6.65;50.69
77159;BME280;66129;45.890;13.714;2022-12-18T14:00:27;102735.03;;;6.53;50.67
77159;BME280;66129;45.890;13.714;2022-12-18T14:02:54;102726.88;;;6.45;50.83
77159;BME280;66129;45.890;13.714;2022-12-18T14:05:38;102727.44;;;6.28;51.56
77159;BME280;66129;45.890;13.714;2022-12-18T14:08:13;102667.94;;;5.90;51.90
77159;BME280;66129;45.890;13.714;2022-12-18T14:10:44;102710.94;;;5.99;51.95
77159;BME280;66129;45.890;13.714;2022-12-18T14:13:27;102712.25;;;6.05;52.07
77159;BME280;66129;45.890;13.714;2022-12-18T14:15:55;102693.53;;;5.80;52.16
77159;BME280;66129;45.890;13.714;2022-12-18T14:18:44;102703.72;;;5.80;53.05
77159;BME280;66129;45.890;13.714;2022-12-18T14:21:20;102693.59;;;5.46;53.11
77159;BME280;66129;45.890;13.714;2022-12-18T14:23:46;102690.88;;;5.20;54.36
77159;BME280;66129;45.890;13.714;2022-12-18T14:26:29;102697.09;;;5.01;55.13
77159;BME280;66129;45.890;13.714;2022-12-18T14:28:56;102659.41;;;4.61;55.41
77159;BME280;66129;45.890;13.714;2022-12-18T14:31:26;102719.50;;;4.83;55.62
77159;BME280;66129;45.890;13.714;2022-12-18T14:33:52;102713.88;;;4.76;56.51
77159;BME280;66129;45.890;13.714;2022-12-18T14:36:28;102696.25;;;4.56;56.74
77159;BME280;66129;45.890;13.714;2022-12-18T14:38:58;102664.66;;;4.30;57.16